sensor_id;sensor_type;location;lat;lon;timestamp;P1;durP1;ratioP1;P2;durP2;ratioP2
56043;SDS011;41912;51.022;3.664;2023-10-08T00:01:18;9.00;;;3.03;;
56043;SDS011;41912;51.022;3.664;2023-10-08T00:03:44;6.75;;;3.58;;
56043;SDS011;41912;51.022;3.664;2023-10-08T00:06:17;27.40;;;3.85;;
56043;SDS011;41912;51.022;3.664;2023-10-08T00:08:45;8.27;;;3.05;;
56043;SDS011;41912;51.022;3.664;2023-10-08T00:11:11;9.55;;;3.53;;
56043;SDS011;41912;51.022;3.664;2023-10-08T00:13:36;11.93;;;3.40;;
56043;SDS011;41912;51.022;3.664;2023-10-08T00:16:06;10.82;;;4.15;;
56043;SDS011;41912;51.022;3.664;2023-10-08T00:18:35;9.52;;;3.38;;
56043;SDS011;41912;51.022;3.664;2023-10-08T00:21:02;8.23;;;3.25;;
56043;SDS011;41912;51.022;3.664;2023-10-08T00:23:34;6.28;;;3.13;;
56043;SDS011;41912;51.022;3.664;2023-10-08T00:26:00;10.35;;;2.83;;
56043;SDS011;41912;51.022;3.664;2023-10-08T00:28:29;13.60;;;3.42;;
56043;SDS011;41912;51.022;3.664;2023-10-08T00:30:57;11.95;;;3.25;;
56043;SDS011;41912;51.022;3.664;2023-10-08T00:33:23;7.18;;;3.03;;
56043;SDS011;41912;51.022;3.664;2023-10-08T00:35:49;10.25;;;3.22;;
56043;SDS011;41912;51.022;3.664;2023-10-08T00:38:15;9.57;;;3.35;;
56043;SDS011;41912;51.022;3.664;2023-10-08T00:40:42;6.63;;;3.20;;
56043;SDS011;41912;51.022;3.664;2023-10-08T00:43:28;11.55;;;4.15;;
56043;SDS011;41912;51.022;3.664;2023-10-08T00:45:56;9.75;;;3.53;;
56043;SDS011;41912;51.022;3.664;2023-10-08T00:48:24;4.88;;;2.90;;
56043;SDS011;41912;51.022;3.664;2023-10-08T00:50:54;18.70;;;3.85;;
56043;SDS011;41912;51.022;3.664;2023-10-08T00:53:40;12.13;;;3.47;;
56043;SDS011;41912;51.022;3.664;2023-10-08T00:56:08;11.73;;;3.33;;
56043;SDS011;41912;51.022;3.664;2023-10-08T00:58:40;7.13;;;3.27;;
56043;SDS011;41912;51.022;3.664;2023-10-08T01:01:06;9.65;;;3.35;;
56043;SDS011;41912;51.022;3.664;2023-10-08T01:03:35;10.30;;;3.17;;
56043;SDS011;41912;51.022;3.664;2023-10-08T01:06:09;13.80;;;3.65;;
56043;SDS011;41912;51.022;3.664;2023-10-08T01:08:36;7.60;;;2.85;;
56043;SDS011;41912;51.022;3.664;2023-10-08T01:11:21;18.52;;;4.18;;
56043;SDS011;41912;51.022;3.664;2023-10-08T01:14:04;19.15;;;3.25;;
56043;SDS011;41912;51.022;3.664;2023-10-08T01:16:32;9.57;;;3.28;;
56043;SDS011;41912;51.022;3.664;2023-10-08T01:18:59;10.23;;;3.15;;
56043;SDS011;41912;51.022;3.664;2023-10-08T01:21:28;7.60;;;3.38;;
56043;SDS011;41912;51.022;3.664;2023-10-08T01:23:59;8.48;;;3.60;;
56043;SDS011;41912;51.022;3.664;2023-10-08T01:26:35;7.13;;;3.10;;
56043;SDS011;41912;51.022;3.664;2023-10-08T01:29:04;9.20;;;3.70;;
56043;SDS011;41912;51.022;3.664;2023-10-08T01:31:34;8.57;;;3.58;;
56043;SDS011;41912;51.022;3.664;2023-10-08T01:34:01;7.53;;;3.08;;
56043;SDS011;41912;51.022;3.664;2023-10-08T01:36:29;10.30;;;3.15;;
56043;SDS011;41912;51.022;3.664;2023-10-08T01:38:56;10.70;;;3.33;;
56043;SDS011;41912;51.022;3.664;2023-10-08T01:41:22;11.82;;;3.55;;
56043;SDS011;41912;51.022;3.664;2023-10-08T01:43:55;9.15;;;3.58;;
56043;SDS011;41912;51.022;3.664;2023-10-08T01:46:24;7.70;;;3.20;;
56043;SDS011;41912;51.022;3.664;2023-10-08T01:48:50;7.80;;;3.08;;
56043;SDS011;41912;51.022;3.664;2023-10-08T01:51:18;8.88;;;3.63;;
56043;SDS011;41912;51.022;3.664;2023-10-08T01:53:54;14.75;;;4.63;;
56043;SDS011;41912;51.022;3.664;2023-10-08T01:56:23;7.28;;;3.03;;
56043;SDS011;41912;51.022;3.664;2023-10-08T01:58:49;9.05;;;3.65;;
56043;SDS011;41912;51.022;3.664;2023-10-08T02:01:19;6.72;;;3.40;;
56043;SDS011;41912;51.022;3.664;2023-10-08T02:03:47;16.75;;;3.97;;
56043;SDS011;41912;51.022;3.664;2023-10-08T02:06:13;11.07;;;3.83;;
56043;SDS011;41912;51.022;3.664;2023-10-08T02:08:39;12.80;;;3.67;;
56043;SDS011;41912;51.022;3.664;2023-10-08T02:11:04;9.13;;;3.30;;
56043;SDS011;41912;51.022;3.664;2023-10-08T02:13:30;6.68;;;3.85;;
56043;SDS011;41912;51.022;3.664;2023-10-08T02:15:56;9.68;;;3.95;;
56043;SDS011;41912;51.022;3.664;2023-10-08T02:18:23;7.90;;;3.65;;
56043;SDS011;41912;51.022;3.664;2023-10-08T02:20:50;9.50;;;3.58;;
56043;SDS011;41912;51.022;3.664;2023-10-08T02:23:16;6.45;;;3.10;;
56043;SDS011;41912;51.022;3.664;2023-10-08T02:25:43;9.00;;;3.22;;
56043;SDS011;41912;51.022;3.664;2023-10-08T02:28:09;11.98;;;3.63;;
56043;SDS011;41912;51.022;3.664;2023-10-08T02:30:38;6.78;;;3.65;;
56043;SDS011;41912;51.022;3.664;2023-10-08T02:33:04;8.73;;;3.78;;
56043;SDS011;41912;51.022;3.664;2023-10-08T02:35:39;7.00;;;3.33;;
56043;SDS011;41912;51.022;3.664;2023-10-08T02:38:07;8.02;;;4.13;;
56043;SDS011;41912;51.022;3.664;2023-10-08T02:40:34;8.65;;;4.28;;
56043;SDS011;41912;51.022;3.664;2023-10-08T02:43:02;9.43;;;3.90;;
56043;SDS011;41912;51.022;3.664;2023-10-08T02:45:31;10.27;;;3.72;;
56043;SDS011;41912;51.022;3.664;2023-10-08T02:47:56;13.55;;;4.25;;
56043;SDS011;41912;51.022;3.664;2023-10-08T02:50:22;10.35;;;3.42;;
56043;SDS011;41912;51.022;3.664;2023-10-08T02:52:48;10.52;;;3.92;;
56043;SDS011;41912;51.022;3.664;2023-10-08T02:55:17;13.32;;;3.80;;
56043;SDS011;41912;51.022;3.664;2023-10-08T02:57:52;8.65;;;3.53;;
56043;SDS011;41912;51.022;3.664;2023-10-08T03:00:18;8.05;;;3.03;;
56043;SDS011;41912;51.022;3.664;2023-10-08T03:02:45;8.77;;;3.95;;
56043;SDS011;41912;51.022;3.664;2023-10-08T03:05:11;9.77;;;3.72;;
56043;SDS011;41912;51.022;3.664;2023-10-08T03:07:38;9.88;;;4.35;;
56043;SDS011;41912;51.022;3.664;2023-10-08T03:10:05;12.15;;;4.95;;
56043;SDS011;41912;51.022;3.664;2023-10-08T03:12:34;10.40;;;3.78;;
56043;SDS011;41912;51.022;3.664;2023-10-08T03:15:00;11.23;;;3.63;;
56043;SDS011;41912;51.022;3.664;2023-10-08T03:17:42;10.50;;;4.10;;
56043;SDS011;41912;51.022;3.664;2023-10-08T03:20:17;8.18;;;4.07;;
56043;SDS011;41912;51.022;3.664;2023-10-08T03:23:02;14.43;;;3.60;;
56043;SDS011;41912;51.022;3.664;2023-10-08T03:25:31;14.35;;;4.43;;
56043;SDS011;41912;51.022;3.664;2023-10-08T03:27:58;7.88;;;3.42;;
56043;SDS011;41912;51.022;3.664;2023-10-08T03:30:24;8.20;;;3.47;;
56043;SDS011;41912;51.022;3.664;2023-10-08T03:32:51;10.38;;;4.20;;
56043;SDS011;41912;51.022;3.664;2023-10-08T03:35:20;7.40;;;3.22;;
56043;SDS011;41912;51.022;3.664;2023-10-08T03:37:53;10.07;;;3.65;;
56043;SDS011;41912;51.022;3.664;2023-10-08T03:40:19;22.05;;;5.72;;
56043;SDS011;41912;51.022;3.664;2023-10-08T03:42:48;8.10;;;3.88;;
56043;SDS011;41912;51.022;3.664;2023-10-08T03:45:14;7.70;;;3.67;;
56043;SDS011;41912;51.022;3.664;2023-10-08T03:47:47;8.88;;;3.40;;
56043;SDS011;41912;51.022;3.664;2023-10-08T03:50:28;8.10;;;4.07;;
56043;SDS011;41912;51.022;3.664;2023-10-08T03:52:57;7.95;;;3.88;;
56043;SDS011;41912;51.022;3.664;2023-10-08T03:55:23;11.30;;;4.15;;
56043;SDS011;41912;51.022;3.664;2023-10-08T03:57:52;10.20;;;3.97;;
56043;SDS011;41912;51.022;3.664;2023-10-08T04:00:23;7.45;;;3.78;;
56043;SDS011;41912;51.022;3.664;2023-10-08T04:02:57;8.07;;;4.13;;
56043;SDS011;41912;51.022;3.664;2023-10-08T04:05:30;6.70;;;3.58;;
56043;SDS011;41912;51.022;3.664;2023-10-08T04:08:09;9.38;;;4.05;;
56043;SDS011;41912;51.022;3.664;2023-10-08T04:11:04;9.60;;;3.88;;
56043;SDS011;41912;51.022;3.664;2023-10-08T04:13:34;13.35;;;4.13;;
56043;SDS011;41912;51.022;3.664;2023-10-08T04:16:04;12.77;;;4.32;;
56043;SDS011;41912;51.022;3.664;2023-10-08T04:18:30;9.55;;;3.90;;
56043;SDS011;41912;51.022;3.664;2023-10-08T04:20:55;10.27;;;4.78;;
56043;SDS011;41912;51.022;3.664;2023-10-08T04:23:25;12.68;;;4.20;;
56043;SDS011;41912;51.022;3.664;2023-10-08T04:25:51;9.90;;;4.00;;
56043;SDS011;41912;51.022;3.664;2023-10-08T04:28:20;9.48;;;3.88;;
56043;SDS011;41912;51.022;3.664;2023-10-08T04:30:47;15.10;;;4.32;;
56043;SDS011;41912;51.022;3.664;2023-10-08T04:33:13;9.40;;;3.85;;
56043;SDS011;41912;51.022;3.664;2023-10-08T04:35:42;10.90;;;3.53;;
56043;SDS011;41912;51.022;3.664;2023-10-08T04:38:22;9.52;;;4.13;;
56043;SDS011;41912;51.022;3.664;2023-10-08T04:40:51;9.63;;;3.60;;
56043;SDS011;41912;51.022;3.664;2023-10-08T04:43:18;14.23;;;4.43;;
56043;SDS011;41912;51.022;3.664;2023-10-08T04:45:52;8.73;;;4.60;;
56043;SDS011;41912;51.022;3.664;2023-10-08T04:48:33;7.90;;;3.75;;
56043;SDS011;41912;51.022;3.664;2023-10-08T04:51:01;8.43;;;4.28;;
56043;SDS011;41912;51.022;3.664;2023-10-08T04:53:29;9.07;;;3.25;;
56043;SDS011;41912;51.022;3.664;2023-10-08T04:56:02;7.55;;;3.70;;
56043;SDS011;41912;51.022;3.664;2023-10-08T04:58:38;10.82;;;4.10;;
56043;SDS011;41912;51.022;3.664;2023-10-08T05:01:10;7.75;;;3.78;;
56043;SDS011;41912;51.022;3.664;2023-10-08T05:03:54;10.13;;;4.05;;
56043;SDS011;41912;51.022;3.664;2023-10-08T05:09:02;9.05;;;3.58;;
56043;SDS011;41912;51.022;3.664;2023-10-08T05:11:38;8.00;;;3.97;;
56043;SDS011;41912;51.022;3.664;2023-10-08T05:14:10;8.73;;;3.85;;
56043;SDS011;41912;51.022;3.664;2023-10-08T05:16:54;7.00;;;3.55;;
56043;SDS011;41912;51.022;3.664;2023-10-08T05:19:31;11.93;;;4.05;;
56043;SDS011;41912;51.022;3.664;2023-10-08T05:22:14;8.20;;;4.15;;
56043;SDS011;41912;51.022;3.664;2023-10-08T05:25:03;10.98;;;3.70;;
56043;SDS011;41912;51.022;3.664;2023-10-08T05:27:38;12.90;;;5.72;;
56043;SDS011;41912;51.022;3.664;2023-10-08T05:32:45;11.68;;;4.30;;
56043;SDS011;41912;51.022;3.664;2023-10-08T05:35:31;18.13;;;5.30;;
56043;SDS011;41912;51.022;3.664;2023-10-08T05:38:09;14.40;;;5.15;;
56043;SDS011;41912;51.022;3.664;2023-10-08T05:40:56;10.52;;;5.53;;
56043;SDS011;41912;51.022;3.664;2023-10-08T05:46:00;12.18;;;4.70;;
56043;SDS011;41912;51.022;3.664;2023-10-08T05:48:44;11.13;;;4.13;;
56043;SDS011;41912;51.022;3.664;2023-10-08T05:51:16;15.88;;;5.10;;
56043;SDS011;41912;51.022;3.664;2023-10-08T05:53:58;16.95;;;4.47;;
56043;SDS011;41912;51.022;3.664;2023-10-08T05:56:28;8.93;;;4.38;;
56043;SDS011;41912;51.022;3.664;2023-10-08T05:58:54;14.05;;;5.00;;
56043;SDS011;41912;51.022;3.664;2023-10-08T06:01:39;13.70;;;5.22;;
56043;SDS011;41912;51.022;3.664;2023-10-08T06:04:06;14.15;;;5.43;;
56043;SDS011;41912;51.022;3.664;2023-10-08T06:06:50;11.85;;;4.70;;
56043;SDS011;41912;51.022;3.664;2023-10-08T06:09:36;12.43;;;4.30;;
56043;SDS011;41912;51.022;3.664;2023-10-08T06:12:02;11.65;;;6.63;;
56043;SDS011;41912;51.022;3.664;2023-10-08T06:14:36;11.00;;;4.32;;
56043;SDS011;41912;51.022;3.664;2023-10-08T06:17:20;11.23;;;4.88;;
56043;SDS011;41912;51.022;3.664;2023-10-08T06:19:59;14.07;;;5.20;;
56043;SDS011;41912;51.022;3.664;2023-10-08T06:22:26;14.15;;;4.30;;
56043;SDS011;41912;51.022;3.664;2023-10-08T06:24:52;10.10;;;4.32;;
56043;SDS011;41912;51.022;3.664;2023-10-08T06:27:38;15.13;;;4.97;;
56043;SDS011;41912;51.022;3.664;2023-10-08T06:30:05;15.75;;;4.55;;
56043;SDS011;41912;51.022;3.664;2023-10-08T06:32:31;9.45;;;4.68;;
56043;SDS011;41912;51.022;3.664;2023-10-08T06:34:56;8.20;;;4.50;;
56043;SDS011;41912;51.022;3.664;2023-10-08T06:37:22;9.10;;;4.57;;
56043;SDS011;41912;51.022;3.664;2023-10-08T06:39:48;15.15;;;4.63;;
56043;SDS011;41912;51.022;3.664;2023-10-08T06:42:13;12.93;;;4.70;;
56043;SDS011;41912;51.022;3.664;2023-10-08T06:44:40;10.93;;;4.38;;
56043;SDS011;41912;51.022;3.664;2023-10-08T06:47:09;10.93;;;4.78;;
56043;SDS011;41912;51.022;3.664;2023-10-08T06:49:34;10.88;;;5.32;;
56043;SDS011;41912;51.022;3.664;2023-10-08T06:52:01;9.77;;;4.18;;
56043;SDS011;41912;51.022;3.664;2023-10-08T06:54:26;9.63;;;4.13;;
56043;SDS011;41912;51.022;3.664;2023-10-08T06:56:55;14.13;;;5.03;;
56043;SDS011;41912;51.022;3.664;2023-10-08T06:59:21;11.57;;;4.80;;
56043;SDS011;41912;51.022;3.664;2023-10-08T07:01:50;7.97;;;4.60;;
56043;SDS011;41912;51.022;3.664;2023-10-08T07:04:16;12.10;;;5.18;;
56043;SDS011;41912;51.022;3.664;2023-10-08T07:06:45;8.55;;;4.50;;
56043;SDS011;41912;51.022;3.664;2023-10-08T07:09:15;9.57;;;4.75;;
56043;SDS011;41912;51.022;3.664;2023-10-08T07:11:49;13.10;;;4.45;;
56043;SDS011;41912;51.022;3.664;2023-10-08T07:14:19;11.73;;;5.22;;
56043;SDS011;41912;51.022;3.664;2023-10-08T07:16:51;11.30;;;4.85;;
56043;SDS011;41912;51.022;3.664;2023-10-08T07:19:23;10.77;;;4.97;;
56043;SDS011;41912;51.022;3.664;2023-10-08T07:22:02;10.82;;;4.90;;
56043;SDS011;41912;51.022;3.664;2023-10-08T07:24:42;8.80;;;4.43;;
56043;SDS011;41912;51.022;3.664;2023-10-08T07:27:10;11.75;;;5.45;;
56043;SDS011;41912;51.022;3.664;2023-10-08T07:29:36;16.20;;;5.63;;
56043;SDS011;41912;51.022;3.664;2023-10-08T07:32:02;10.95;;;4.95;;
56043;SDS011;41912;51.022;3.664;2023-10-08T07:34:36;9.57;;;4.88;;
56043;SDS011;41912;51.022;3.664;2023-10-08T07:37:02;13.20;;;5.65;;
56043;SDS011;41912;51.022;3.664;2023-10-08T07:39:28;10.65;;;4.85;;
56043;SDS011;41912;51.022;3.664;2023-10-08T07:41:56;10.50;;;4.95;;
56043;SDS011;41912;51.022;3.664;2023-10-08T07:44:23;10.70;;;5.30;;
56043;SDS011;41912;51.022;3.664;2023-10-08T07:46:50;13.85;;;5.20;;
56043;SDS011;41912;51.022;3.664;2023-10-08T07:49:19;13.68;;;5.18;;
56043;SDS011;41912;51.022;3.664;2023-10-08T07:51:45;12.88;;;5.60;;
56043;SDS011;41912;51.022;3.664;2023-10-08T07:54:18;10.85;;;5.75;;
56043;SDS011;41912;51.022;3.664;2023-10-08T07:56:52;13.85;;;5.50;;
56043;SDS011;41912;51.022;3.664;2023-10-08T07:59:37;9.37;;;5.50;;
56043;SDS011;41912;51.022;3.664;2023-10-08T08:02:07;15.82;;;5.07;;
56043;SDS011;41912;51.022;3.664;2023-10-08T08:04:42;15.65;;;6.65;;
56043;SDS011;41912;51.022;3.664;2023-10-08T08:07:10;16.77;;;5.78;;
56043;SDS011;41912;51.022;3.664;2023-10-08T08:09:42;15.25;;;5.70;;
56043;SDS011;41912;51.022;3.664;2023-10-08T08:12:15;13.80;;;6.40;;
56043;SDS011;41912;51.022;3.664;2023-10-08T08:14:41;9.68;;;5.50;;
56043;SDS011;41912;51.022;3.664;2023-10-08T08:17:08;22.77;;;7.13;;
56043;SDS011;41912;51.022;3.664;2023-10-08T08:19:40;15.25;;;6.40;;
56043;SDS011;41912;51.022;3.664;2023-10-08T08:22:07;18.38;;;7.00;;
56043;SDS011;41912;51.022;3.664;2023-10-08T08:24:32;15.65;;;7.20;;
56043;SDS011;41912;51.022;3.664;2023-10-08T08:27:01;14.90;;;6.43;;
56043;SDS011;41912;51.022;3.664;2023-10-08T08:29:33;17.13;;;6.70;;
56043;SDS011;41912;51.022;3.664;2023-10-08T08:32:09;18.05;;;7.68;;
56043;SDS011;41912;51.022;3.664;2023-10-08T08:34:37;14.43;;;7.57;;
56043;SDS011;41912;51.022;3.664;2023-10-08T08:37:08;17.88;;;6.57;;
56043;SDS011;41912;51.022;3.664;2023-10-08T08:39:37;18.33;;;7.18;;
56043;SDS011;41912;51.022;3.664;2023-10-08T08:42:04;16.70;;;7.68;;
56043;SDS011;41912;51.022;3.664;2023-10-08T08:44:35;13.82;;;7.05;;
56043;SDS011;41912;51.022;3.664;2023-10-08T08:47:10;20.20;;;7.68;;
56043;SDS011;41912;51.022;3.664;2023-10-08T08:49:39;14.55;;;7.35;;
56043;SDS011;41912;51.022;3.664;2023-10-08T08:52:07;16.50;;;7.00;;
56043;SDS011;41912;51.022;3.664;2023-10-08T08:54:34;14.60;;;8.25;;
56043;SDS011;41912;51.022;3.664;2023-10-08T08:57:02;17.50;;;7.30;;
56043;SDS011;41912;51.022;3.664;2023-10-08T08:59:38;17.02;;;8.23;;
56043;SDS011;41912;51.022;3.664;2023-10-08T09:02:18;19.17;;;8.10;;
56043;SDS011;41912;51.022;3.664;2023-10-08T09:04:44;16.40;;;7.07;;
56043;SDS011;41912;51.022;3.664;2023-10-08T09:07:11;13.10;;;7.30;;
56043;SDS011;41912;51.022;3.664;2023-10-08T09:09:37;18.08;;;6.90;;
56043;SDS011;41912;51.022;3.664;2023-10-08T09:12:04;16.67;;;8.00;;
56043;SDS011;41912;51.022;3.664;2023-10-08T09:14:30;18.73;;;8.27;;
56043;SDS011;41912;51.022;3.664;2023-10-08T09:16:59;23.65;;;7.90;;
56043;SDS011;41912;51.022;3.664;2023-10-08T09:19:25;24.42;;;8.50;;
56043;SDS011;41912;51.022;3.664;2023-10-08T09:24:34;23.70;;;9.65;;
56043;SDS011;41912;51.022;3.664;2023-10-08T09:27:08;20.70;;;8.15;;
56043;SDS011;41912;51.022;3.664;2023-10-08T09:29:39;22.83;;;9.48;;
56043;SDS011;41912;51.022;3.664;2023-10-08T09:32:05;23.80;;;9.30;;
56043;SDS011;41912;51.022;3.664;2023-10-08T09:34:33;16.63;;;7.90;;
56043;SDS011;41912;51.022;3.664;2023-10-08T09:36:59;22.98;;;8.80;;
56043;SDS011;41912;51.022;3.664;2023-10-08T09:39:26;24.52;;;9.88;;
56043;SDS011;41912;51.022;3.664;2023-10-08T09:41:57;18.00;;;8.68;;
56043;SDS011;41912;51.022;3.664;2023-10-08T09:44:23;18.67;;;9.07;;
56043;SDS011;41912;51.022;3.664;2023-10-08T09:49:32;18.83;;;8.67;;
56043;SDS011;41912;51.022;3.664;2023-10-08T09:52:07;24.40;;;8.27;;
56043;SDS011;41912;51.022;3.664;2023-10-08T09:54:43;19.55;;;7.80;;
56043;SDS011;41912;51.022;3.664;2023-10-08T09:57:14;18.65;;;8.50;;
56043;SDS011;41912;51.022;3.664;2023-10-08T09:59:44;16.92;;;7.88;;
56043;SDS011;41912;51.022;3.664;2023-10-08T10:02:12;20.20;;;8.10;;
56043;SDS011;41912;51.022;3.664;2023-10-08T10:04:44;18.33;;;7.70;;
56043;SDS011;41912;51.022;3.664;2023-10-08T10:07:13;18.20;;;7.35;;
56043;SDS011;41912;51.022;3.664;2023-10-08T10:09:44;18.33;;;8.50;;
56043;SDS011;41912;51.022;3.664;2023-10-08T10:12:17;23.55;;;7.30;;
56043;SDS011;41912;51.022;3.664;2023-10-08T10:14:50;15.10;;;6.70;;
56043;SDS011;41912;51.022;3.664;2023-10-08T10:17:21;20.65;;;8.35;;
56043;SDS011;41912;51.022;3.664;2023-10-08T10:20:00;19.88;;;7.97;;
56043;SDS011;41912;51.022;3.664;2023-10-08T10:22:27;23.00;;;7.78;;
56043;SDS011;41912;51.022;3.664;2023-10-08T10:25:00;27.13;;;8.60;;
56043;SDS011;41912;51.022;3.664;2023-10-08T10:27:36;17.92;;;7.63;;
56043;SDS011;41912;51.022;3.664;2023-10-08T10:30:02;27.40;;;8.38;;
56043;SDS011;41912;51.022;3.664;2023-10-08T10:32:33;14.75;;;7.35;;
56043;SDS011;41912;51.022;3.664;2023-10-08T10:35:02;20.83;;;7.80;;
56043;SDS011;41912;51.022;3.664;2023-10-08T10:37:32;18.92;;;7.50;;
56043;SDS011;41912;51.022;3.664;2023-10-08T10:40:06;19.55;;;8.05;;
56043;SDS011;41912;51.022;3.664;2023-10-08T10:42:35;16.88;;;7.10;;
56043;SDS011;41912;51.022;3.664;2023-10-08T10:45:11;18.70;;;7.70;;
56043;SDS011;41912;51.022;3.664;2023-10-08T10:47:58;16.08;;;7.90;;
56043;SDS011;41912;51.022;3.664;2023-10-08T10:50:35;17.17;;;6.60;;
56043;SDS011;41912;51.022;3.664;2023-10-08T10:53:13;13.98;;;6.57;;
56043;SDS011;41912;51.022;3.664;2023-10-08T10:55:39;19.48;;;7.97;;
56043;SDS011;41912;51.022;3.664;2023-10-08T10:58:13;18.85;;;6.47;;
56043;SDS011;41912;51.022;3.664;2023-10-08T11:00:44;16.83;;;6.95;;
56043;SDS011;41912;51.022;3.664;2023-10-08T11:03:09;19.77;;;6.93;;
56043;SDS011;41912;51.022;3.664;2023-10-08T11:05:41;14.65;;;6.45;;
56043;SDS011;41912;51.022;3.664;2023-10-08T11:08:13;14.30;;;6.75;;
56043;SDS011;41912;51.022;3.664;2023-10-08T11:10:43;18.23;;;7.35;;
56043;SDS011;41912;51.022;3.664;2023-10-08T11:13:14;16.60;;;6.78;;
56043;SDS011;41912;51.022;3.664;2023-10-08T11:15:40;18.38;;;7.85;;
56043;SDS011;41912;51.022;3.664;2023-10-08T11:18:08;16.55;;;6.57;;
56043;SDS011;41912;51.022;3.664;2023-10-08T11:20:35;16.27;;;6.40;;
56043;SDS011;41912;51.022;3.664;2023-10-08T11:23:09;11.63;;;5.63;;
56043;SDS011;41912;51.022;3.664;2023-10-08T11:28:19;19.50;;;6.70;;
56043;SDS011;41912;51.022;3.664;2023-10-08T11:30:45;20.85;;;7.35;;
56043;SDS011;41912;51.022;3.664;2023-10-08T11:33:16;19.67;;;6.72;;
56043;SDS011;41912;51.022;3.664;2023-10-08T11:35:55;17.73;;;6.68;;
56043;SDS011;41912;51.022;3.664;2023-10-08T11:38:52;13.27;;;6.10;;
56043;SDS011;41912;51.022;3.664;2023-10-08T11:41:25;17.70;;;6.65;;
56043;SDS011;41912;51.022;3.664;2023-10-08T11:43:56;17.83;;;6.47;;
56043;SDS011;41912;51.022;3.664;2023-10-08T11:46:26;13.57;;;6.20;;
56043;SDS011;41912;51.022;3.664;2023-10-08T11:49:06;16.13;;;5.90;;
56043;SDS011;41912;51.022;3.664;2023-10-08T11:51:42;15.40;;;6.32;;
56043;SDS011;41912;51.022;3.664;2023-10-08T11:54:09;17.90;;;5.35;;
56043;SDS011;41912;51.022;3.664;2023-10-08T11:56:36;13.98;;;5.80;;
56043;SDS011;41912;51.022;3.664;2023-10-08T11:59:03;18.98;;;6.45;;
56043;SDS011;41912;51.022;3.664;2023-10-08T12:01:37;15.73;;;5.97;;
56043;SDS011;41912;51.022;3.664;2023-10-08T12:04:07;13.13;;;5.18;;
56043;SDS011;41912;51.022;3.664;2023-10-08T12:06:38;13.55;;;6.43;;
56043;SDS011;41912;51.022;3.664;2023-10-08T12:09:09;16.88;;;5.97;;
56043;SDS011;41912;51.022;3.664;2023-10-08T12:11:37;14.98;;;5.10;;
56043;SDS011;41912;51.022;3.664;2023-10-08T12:14:04;13.35;;;6.00;;
56043;SDS011;41912;51.022;3.664;2023-10-08T12:16:30;14.85;;;5.13;;
56043;SDS011;41912;51.022;3.664;2023-10-08T12:19:00;17.48;;;5.80;;
56043;SDS011;41912;51.022;3.664;2023-10-08T12:21:30;17.67;;;5.43;;
56043;SDS011;41912;51.022;3.664;2023-10-08T12:23:58;13.45;;;5.20;;
56043;SDS011;41912;51.022;3.664;2023-10-08T12:26:24;15.25;;;6.13;;
56043;SDS011;41912;51.022;3.664;2023-10-08T12:28:50;18.20;;;6.32;;
56043;SDS011;41912;51.022;3.664;2023-10-08T12:31:20;14.35;;;5.93;;
56043;SDS011;41912;51.022;3.664;2023-10-08T12:33:52;19.83;;;5.82;;
56043;SDS011;41912;51.022;3.664;2023-10-08T12:36:25;12.70;;;5.03;;
56043;SDS011;41912;51.022;3.664;2023-10-08T12:38:52;14.45;;;5.00;;
56043;SDS011;41912;51.022;3.664;2023-10-08T12:41:34;14.23;;;4.80;;
56043;SDS011;41912;51.022;3.664;2023-10-08T12:44:03;12.13;;;4.88;;
56043;SDS011;41912;51.022;3.664;2023-10-08T12:46:32;13.85;;;5.80;;
56043;SDS011;41912;51.022;3.664;2023-10-08T12:48:59;12.82;;;5.65;;
56043;SDS011;41912;51.022;3.664;2023-10-08T12:51:26;14.35;;;5.70;;
56043;SDS011;41912;51.022;3.664;2023-10-08T12:53:57;12.20;;;5.20;;
56043;SDS011;41912;51.022;3.664;2023-10-08T12:56:31;14.13;;;4.72;;
56043;SDS011;41912;51.022;3.664;2023-10-08T12:59:01;12.73;;;5.18;;
56043;SDS011;41912;51.022;3.664;2023-10-08T13:01:31;15.73;;;4.82;;
56043;SDS011;41912;51.022;3.664;2023-10-08T13:04:01;10.73;;;5.22;;
56043;SDS011;41912;51.022;3.664;2023-10-08T13:06:32;15.88;;;4.80;;
56043;SDS011;41912;51.022;3.664;2023-10-08T13:09:02;18.58;;;5.10;;
56043;SDS011;41912;51.022;3.664;2023-10-08T13:11:34;16.05;;;4.35;;
56043;SDS011;41912;51.022;3.664;2023-10-08T13:14:00;12.85;;;4.25;;
56043;SDS011;41912;51.022;3.664;2023-10-08T13:16:26;17.08;;;5.38;;
56043;SDS011;41912;51.022;3.664;2023-10-08T13:19:02;14.35;;;6.18;;
56043;SDS011;41912;51.022;3.664;2023-10-08T13:21:28;17.13;;;6.32;;
56043;SDS011;41912;51.022;3.664;2023-10-08T13:23:57;14.88;;;5.85;;
56043;SDS011;41912;51.022;3.664;2023-10-08T13:26:25;14.80;;;5.05;;
56043;SDS011;41912;51.022;3.664;2023-10-08T13:28:56;13.57;;;4.43;;
56043;SDS011;41912;51.022;3.664;2023-10-08T13:31:23;14.20;;;4.80;;
56043;SDS011;41912;51.022;3.664;2023-10-08T13:33:50;12.52;;;4.80;;
56043;SDS011;41912;51.022;3.664;2023-10-08T13:36:17;11.55;;;4.53;;
56043;SDS011;41912;51.022;3.664;2023-10-08T13:38:43;14.82;;;5.25;;
56043;SDS011;41912;51.022;3.664;2023-10-08T13:41:11;10.07;;;4.70;;
56043;SDS011;41912;51.022;3.664;2023-10-08T13:43:41;10.93;;;4.88;;
56043;SDS011;41912;51.022;3.664;2023-10-08T13:46:10;12.13;;;4.90;;
56043;SDS011;41912;51.022;3.664;2023-10-08T13:48:41;12.60;;;4.85;;
56043;SDS011;41912;51.022;3.664;2023-10-08T13:51:11;12.52;;;4.97;;
56043;SDS011;41912;51.022;3.664;2023-10-08T13:53:47;11.43;;;4.78;;
56043;SDS011;41912;51.022;3.664;2023-10-08T13:56:17;11.68;;;4.75;;
56043;SDS011;41912;51.022;3.664;2023-10-08T13:58:45;12.52;;;4.50;;
56043;SDS011;41912;51.022;3.664;2023-10-08T14:01:14;15.93;;;5.22;;
56043;SDS011;41912;51.022;3.664;2023-10-08T14:03:49;17.52;;;5.68;;
56043;SDS011;41912;51.022;3.664;2023-10-08T14:06:19;15.02;;;5.50;;
56043;SDS011;41912;51.022;3.664;2023-10-08T14:08:45;16.80;;;5.90;;
56043;SDS011;41912;51.022;3.664;2023-10-08T14:11:21;11.85;;;4.85;;
56043;SDS011;41912;51.022;3.664;2023-10-08T14:13:52;14.30;;;4.90;;
56043;SDS011;41912;51.022;3.664;2023-10-08T14:16:18;10.00;;;4.25;;
56043;SDS011;41912;51.022;3.664;2023-10-08T14:18:49;10.13;;;4.28;;
56043;SDS011;41912;51.022;3.664;2023-10-08T14:21:18;15.60;;;5.53;;
56043;SDS011;41912;51.022;3.664;2023-10-08T14:23:48;14.30;;;5.13;;
56043;SDS011;41912;51.022;3.664;2023-10-08T14:26:17;12.70;;;5.20;;
56043;SDS011;41912;51.022;3.664;2023-10-08T14:28:46;15.65;;;5.10;;
56043;SDS011;41912;51.022;3.664;2023-10-08T14:31:22;9.85;;;4.57;;
56043;SDS011;41912;51.022;3.664;2023-10-08T14:33:49;14.45;;;5.25;;
56043;SDS011;41912;51.022;3.664;2023-10-08T14:36:30;13.10;;;5.13;;
56043;SDS011;41912;51.022;3.664;2023-10-08T14:39:17;9.48;;;4.38;;
56043;SDS011;41912;51.022;3.664;2023-10-08T14:42:02;18.80;;;5.60;;
56043;SDS011;41912;51.022;3.664;2023-10-08T14:44:47;11.82;;;5.38;;
56043;SDS011;41912;51.022;3.664;2023-10-08T14:47:15;11.00;;;4.82;;
56043;SDS011;41912;51.022;3.664;2023-10-08T14:49:41;13.43;;;5.07;;
56043;SDS011;41912;51.022;3.664;2023-10-08T14:52:08;13.75;;;4.45;;
56043;SDS011;41912;51.022;3.664;2023-10-08T14:54:34;11.10;;;4.78;;
56043;SDS011;41912;51.022;3.664;2023-10-08T14:57:00;10.07;;;4.78;;
56043;SDS011;41912;51.022;3.664;2023-10-08T14:59:27;15.63;;;5.30;;
56043;SDS011;41912;51.022;3.664;2023-10-08T15:01:54;14.35;;;4.95;;
56043;SDS011;41912;51.022;3.664;2023-10-08T15:04:20;15.00;;;5.00;;
56043;SDS011;41912;51.022;3.664;2023-10-08T15:06:47;12.30;;;4.85;;
56043;SDS011;41912;51.022;3.664;2023-10-08T15:09:13;11.57;;;5.18;;
56043;SDS011;41912;51.022;3.664;2023-10-08T15:11:50;10.98;;;4.88;;
56043;SDS011;41912;51.022;3.664;2023-10-08T15:14:19;10.52;;;4.78;;